createdAt,value
2023-05-22T00:00:40.974Z,1907.00
2023-05-22T00:01:40.715Z,1900.00
2023-05-22T00:02:40.739Z,1919.00
2023-05-22T00:03:40.681Z,1948.00
2023-05-22T00:04:40.819Z,1944.00
2023-05-22T00:05:40.737Z,1946.00
2023-05-22T00:06:40.688Z,1951.00
2023-05-22T00:07:40.699Z,1956.00
2023-05-22T00:08:40.660Z,1975.00
2023-05-22T00:09:40.640Z,2019.00
2023-05-22T00:10:40.807Z,2013.00
2023-05-22T00:11:40.630Z,2011.00
2023-05-22T00:12:40.676Z,2021.00
2023-05-22T00:13:40.615Z,2031.00
2023-05-22T00:14:40.632Z,2029.00
2023-05-22T00:15:40.670Z,2011.00
2023-05-22T00:16:40.624Z,2020.00
2023-05-22T00:17:40.622Z,2024.00
2023-05-22T00:18:40.577Z,2026.00
2023-05-22T00:19:40.581Z,2023.00
2023-05-22T00:20:40.783Z,2030.00
2023-05-22T00:21:40.592Z,2036.00
2023-05-22T00:22:40.619Z,2039.00
2023-05-22T00:23:40.638Z,2036.00
2023-05-22T00:24:40.649Z,2035.00
2023-05-22T00:25:40.689Z,2057.00
2023-05-22T00:26:40.707Z,2065.00
2023-05-22T00:27:40.732Z,2068.00
2023-05-22T00:28:40.739Z,2086.00
2023-05-22T00:29:40.772Z,2106.00
2023-05-22T00:30:41.002Z,2101.00
2023-05-22T00:31:40.851Z,2105.00
2023-05-22T00:32:40.868Z,2105.00
2023-05-22T00:33:40.861Z,2135.00
2023-05-22T00:34:40.934Z,2113.00
2023-05-22T00:35:40.931Z,2076.00
2023-05-22T00:36:40.954Z,2104.00
2023-05-22T00:37:40.988Z,2103.00
2023-05-22T00:38:41.002Z,2096.00
2023-05-22T00:39:41.024Z,2125.00
2023-05-22T00:40:41.243Z,2123.00
2023-05-22T00:41:41.105Z,2120.00
2023-05-22T00:42:41.121Z,2082.00
2023-05-22T00:43:41.130Z,2073.00
2023-05-22T00:44:41.161Z,2060.00
2023-05-22T00:45:41.192Z,2070.00
2023-05-22T00:46:41.247Z,2083.00
2023-05-22T00:47:41.331Z,2076.00
2023-05-22T00:48:41.283Z,2086.00
2023-05-22T00:49:41.320Z,2062.00
2023-05-22T00:50:41.493Z,2051.00
2023-05-22T00:51:41.358Z,2064.00
2023-05-22T00:52:41.401Z,2074.00
2023-05-22T00:53:41.415Z,2051.00
2023-05-22T00:54:41.459Z,2045.00
2023-05-22T00:55:41.492Z,2022.00
2023-05-22T00:56:41.523Z,2030.00
2023-05-22T00:57:41.556Z,2042.00
2023-05-22T00:58:41.573Z,2035.00
2023-05-22T00:59:41.609Z,2040.00
2023-05-22T01:00:41.751Z,2067.00
2023-05-22T01:01:41.695Z,2088.00
2023-05-22T01:02:41.752Z,2114.00
2023-05-22T01:03:41.833Z,2140.00
2023-05-22T01:04:41.761Z,2132.00
2023-05-22T01:05:41.796Z,2128.00
2023-05-22T01:06:41.830Z,2125.00
2023-05-22T01:07:41.860Z,2116.00
2023-05-22T01:08:41.887Z,2123.00
2023-05-22T01:09:41.897Z,2106.00
2023-05-22T01:10:42.223Z,2125.00
2023-05-22T01:11:41.992Z,2115.00
2023-05-22T01:12:42.018Z,2116.00
2023-05-22T01:13:42.065Z,2123.00
2023-05-22T01:14:42.086Z,2141.00
2023-05-22T01:15:42.106Z,2157.00
2023-05-22T01:16:42.210Z,2160.00
2023-05-22T01:17:42.237Z,2165.00
2023-05-22T01:18:42.230Z,2182.00
2023-05-22T01:19:42.275Z,2215.00
2023-05-22T01:20:42.294Z,2220.00
2023-05-22T01:21:42.319Z,2219.00
2023-05-22T01:22:42.393Z,2227.00
2023-05-22T01:23:42.393Z,2241.00
2023-05-22T01:24:42.538Z,2261.00
2023-05-22T01:25:42.465Z,2277.00
2023-05-22T01:26:42.529Z,2306.00
2023-05-22T01:27:42.597Z,2321.00
2023-05-22T01:28:42.622Z,2306.00
2023-05-22T01:29:42.615Z,2316.00
2023-05-22T01:30:42.658Z,2321.00
2023-05-22T01:31:42.671Z,2349.00
2023-05-22T01:32:42.753Z,2369.00
2023-05-22T01:33:42.818Z,2391.00
2023-05-22T01:34:42.811Z,2384.00
2023-05-22T01:35:42.825Z,2389.00
2023-05-22T01:36:42.868Z,2382.00
2023-05-22T01:37:42.894Z,2358.00
2023-05-22T01:38:42.955Z,2376.00
2023-05-22T01:39:42.977Z,2391.00
2023-05-22T01:40:43.017Z,2397.00
2023-05-22T01:41:43.056Z,2376.00
2023-05-22T01:42:43.073Z,2395.00
2023-05-22T01:43:43.118Z,2437.00
2023-05-22T01:44:43.130Z,2421.00
2023-05-22T01:45:43.330Z,2444.00
2023-05-22T01:46:43.203Z,2439.00
2023-05-22T01:47:43.306Z,2454.00
2023-05-22T01:48:43.324Z,2438.00
2023-05-22T01:49:43.347Z,2461.00
2023-05-22T01:50:43.339Z,2457.00
2023-05-22T01:51:43.395Z,2450.00
2023-05-22T01:52:43.430Z,2449.00
2023-05-22T01:53:43.482Z,2448.00
2023-05-22T01:54:43.501Z,2441.00
2023-05-22T01:55:43.527Z,2425.00
2023-05-22T01:56:43.552Z,2420.00
2023-05-22T01:57:43.596Z,2411.00
2023-05-22T01:58:43.630Z,2400.00
2023-05-22T01:59:43.657Z,2397.00
2023-05-22T02:00:43.703Z,2381.00
2023-05-22T02:01:43.898Z,2380.00
2023-05-22T02:02:43.827Z,2355.00
2023-05-22T02:03:43.830Z,2345.00
2023-05-22T02:04:43.844Z,2349.00
2023-05-22T02:05:43.853Z,2353.00
2023-05-22T02:06:43.891Z,2337.00
2023-05-22T02:07:43.950Z,2328.00
2023-05-22T02:08:43.966Z,2333.00
2023-05-22T02:09:44.025Z,2325.00
2023-05-22T02:10:44.034Z,2305.00
2023-05-22T02:11:44.049Z,2282.00
2023-05-22T02:12:44.122Z,2287.00
2023-05-22T02:13:44.141Z,2277.00
2023-05-22T02:14:44.187Z,2289.00
2023-05-22T02:15:44.269Z,2312.00
2023-05-22T02:16:44.260Z,2314.00
2023-05-22T02:17:44.366Z,2311.00
2023-05-22T02:18:44.520Z,2315.00
2023-05-22T02:19:44.333Z,2317.00
2023-05-22T02:20:44.389Z,2298.00
2023-05-22T02:21:44.390Z,2319.00
2023-05-22T02:22:44.565Z,2345.00
2023-05-22T02:23:44.507Z,2350.00
2023-05-22T02:24:44.544Z,2345.00
2023-05-22T02:25:44.539Z,2364.00
2023-05-22T02:26:44.612Z,2362.00
2023-05-22T02:27:44.655Z,2361.00
2023-05-22T02:28:44.720Z,2361.00
2023-05-22T02:29:44.736Z,2344.00
2023-05-22T02:30:44.786Z,2339.00
2023-05-22T02:31:45.805Z,2352.00
2023-05-22T02:32:44.923Z,2347.00
2023-05-22T02:33:44.863Z,2338.00
2023-05-22T02:34:44.937Z,2341.00
2023-05-22T02:35:44.968Z,2371.00
2023-05-22T02:36:45.003Z,2397.00
2023-05-22T02:37:45.047Z,2398.00
2023-05-22T02:38:45.074Z,2414.00
2023-05-22T02:39:45.111Z,2449.00
2023-05-22T02:40:45.179Z,2471.00
2023-05-22T02:41:45.229Z,2438.00
2023-05-22T02:42:45.258Z,2451.00
2023-05-22T02:43:45.285Z,2479.00
2023-05-22T02:44:45.328Z,2494.00
2023-05-22T02:45:45.339Z,2501.00
2023-05-22T02:46:45.417Z,2501.00
2023-05-22T02:47:45.481Z,2533.00
2023-05-22T02:48:45.494Z,2552.00
2023-05-22T02:49:45.491Z,2555.00
2023-05-22T02:50:45.545Z,2565.00
2023-05-22T02:51:45.575Z,2585.00
2023-05-22T02:52:45.609Z,2578.00
2023-05-22T02:53:45.641Z,2600.00
2023-05-22T02:54:45.687Z,2588.00
2023-05-22T02:55:45.709Z,2590.00
2023-05-22T02:56:45.771Z,2594.00
2023-05-22T02:57:45.811Z,2591.00
2023-05-22T02:58:45.835Z,2604.00
2023-05-22T02:59:45.873Z,2619.00
2023-05-22T03:00:45.919Z,2627.00
2023-05-22T03:01:45.991Z,2642.00
2023-05-22T03:02:46.042Z,2644.00
2023-05-22T03:03:46.047Z,2666.00
2023-05-22T03:04:46.086Z,2671.00
2023-05-22T03:05:46.110Z,2668.00
2023-05-22T03:06:46.206Z,2660.00
2023-05-22T03:07:48.353Z,2678.00
2023-05-22T03:08:46.178Z,2654.00
2023-05-22T03:09:46.175Z,2660.00
2023-05-22T03:10:46.172Z,2711.00
2023-05-22T03:11:46.179Z,2728.00
2023-05-22T03:12:46.146Z,2766.00
2023-05-22T03:13:46.142Z,2743.00
2023-05-22T03:14:46.127Z,2726.00
2023-05-22T03:15:46.138Z,2761.00
2023-05-22T03:16:46.212Z,2726.00
2023-05-22T03:17:46.194Z,2747.00
2023-05-22T03:18:46.146Z,2718.00
2023-05-22T03:19:46.099Z,2698.00
2023-05-22T03:20:46.093Z,2651.00
2023-05-22T03:21:46.073Z,2608.00
2023-05-22T03:22:46.090Z,2585.00
2023-05-22T03:23:46.064Z,2566.00
2023-05-22T03:24:46.065Z,2601.00
2023-05-22T03:25:46.049Z,2577.00
2023-05-22T03:26:46.053Z,2576.00
2023-05-22T03:27:46.059Z,2562.00
2023-05-22T03:28:46.045Z,2547.00
2023-05-22T03:29:46.018Z,2581.00
2023-05-22T03:30:46.016Z,2552.00
2023-05-22T03:31:46.022Z,2578.00
2023-05-22T03:32:46.040Z,2590.00
2023-05-22T03:33:46.009Z,2612.00
2023-05-22T03:34:45.989Z,2632.00
2023-05-22T03:35:45.996Z,2625.00
2023-05-22T03:36:46.064Z,2653.00
2023-05-22T03:37:46.178Z,2642.00
2023-05-22T03:38:45.983Z,2672.00
2023-05-22T03:39:45.977Z,2686.00
2023-05-22T03:40:45.949Z,2674.00
2023-05-22T03:41:45.953Z,2730.00
2023-05-22T03:42:45.954Z,2706.00
2023-05-22T03:43:45.979Z,2737.00
2023-05-22T03:44:45.933Z,2732.00
2023-05-22T03:45:45.919Z,2742.00
2023-05-22T03:46:45.921Z,2773.00
2023-05-22T03:47:45.968Z,2756.00
2023-05-22T03:48:45.907Z,2755.00
2023-05-22T03:49:45.915Z,2764.00
2023-05-22T03:50:45.905Z,2762.00
2023-05-22T03:51:45.881Z,2783.00
2023-05-22T03:52:45.855Z,2791.00
2023-05-22T03:53:45.870Z,2808.00
2023-05-22T03:54:45.853Z,2817.00
2023-05-22T03:55:45.825Z,2825.00
2023-05-22T03:56:45.849Z,2827.00
2023-05-22T03:57:45.876Z,2847.00
2023-05-22T03:58:45.945Z,2846.00
2023-05-22T03:59:45.969Z,2827.00
2023-05-22T04:00:46.036Z,2834.00
2023-05-22T04:01:46.091Z,2832.00
2023-05-22T04:02:46.146Z,2827.00
2023-05-22T04:03:46.169Z,2822.00
2023-05-22T04:04:46.298Z,2839.00
2023-05-22T04:05:46.230Z,2840.00
2023-05-22T04:06:46.274Z,2834.00
2023-05-22T04:07:46.319Z,2807.00
2023-05-22T04:08:46.385Z,2846.00
2023-05-22T04:09:46.419Z,2819.00
2023-05-22T04:10:46.535Z,2801.00
2023-05-22T04:11:46.510Z,2766.00
2023-05-22T04:12:46.558Z,2753.00
2023-05-22T04:13:46.598Z,2749.00
2023-05-22T04:14:46.635Z,2705.00
2023-05-22T04:15:46.858Z,2693.00
2023-05-22T04:16:47.540Z,2726.00
2023-05-22T04:17:46.835Z,2715.00
2023-05-22T04:18:46.881Z,2735.00
2023-05-22T04:19:46.865Z,2735.00
2023-05-22T04:20:46.929Z,2709.00
2023-05-22T04:21:46.978Z,2689.00
2023-05-22T04:22:47.019Z,2706.00
2023-05-22T04:23:47.100Z,2697.00
2023-05-22T04:24:47.103Z,2692.00
2023-05-22T04:25:47.159Z,2713.00
2023-05-22T04:26:47.172Z,2716.00
2023-05-22T04:27:47.236Z,2727.00
2023-05-22T04:28:47.303Z,2696.00
2023-05-22T04:29:47.303Z,2705.00
2023-05-22T04:30:47.431Z,2716.00
2023-05-22T04:31:47.393Z,2709.00
2023-05-22T04:32:47.488Z,2674.00
2023-05-22T04:33:47.468Z,2631.00
2023-05-22T04:34:47.518Z,2612.00
2023-05-22T04:35:47.553Z,2622.00
2023-05-22T04:36:47.607Z,2562.00
2023-05-22T04:37:47.693Z,2544.00
2023-05-22T04:38:47.707Z,2535.00
2023-05-22T04:39:47.731Z,2527.00
2023-05-22T04:40:47.785Z,2546.00
2023-05-22T04:41:47.788Z,2532.00
2023-05-22T04:42:47.830Z,2542.00
2023-05-22T04:43:47.914Z,2566.00
2023-05-22T04:44:47.941Z,2592.00
2023-05-22T04:45:47.978Z,2619.00
2023-05-22T04:46:48.030Z,2626.00
2023-05-22T04:47:48.044Z,2624.00
2023-05-22T04:48:48.065Z,2611.00
2023-05-22T04:49:48.079Z,2619.00
2023-05-22T04:50:48.189Z,2623.00
2023-05-22T04:51:48.148Z,2631.00
2023-05-22T04:52:48.149Z,2641.00
2023-05-22T04:53:48.192Z,2650.00
2023-05-22T04:54:48.207Z,2641.00
2023-05-22T04:55:48.223Z,2672.00
2023-05-22T04:56:48.263Z,2704.00
2023-05-22T04:57:48.315Z,2739.00
2023-05-22T04:58:48.290Z,2798.00
2023-05-22T04:59:48.306Z,2841.00
2023-05-22T05:00:48.377Z,2811.00
2023-05-22T05:01:48.395Z,2878.00
2023-05-22T05:02:48.435Z,2896.00
2023-05-22T05:03:48.444Z,2876.00
2023-05-22T05:04:48.398Z,2882.00
2023-05-22T05:05:48.428Z,2909.00
2023-05-22T05:06:48.416Z,2963.00
2023-05-22T05:07:49.932Z,2997.00
2023-05-22T05:08:48.413Z,3021.00
2023-05-22T05:09:48.446Z,3037.00
2023-05-22T05:10:48.418Z,3059.00
2023-05-22T05:11:48.431Z,3084.00
2023-05-22T05:12:48.450Z,3116.00
2023-05-22T05:13:48.512Z,3148.00
2023-05-22T05:14:48.617Z,3203.00
2023-05-22T05:15:48.621Z,3169.00
2023-05-22T05:16:48.676Z,3154.00
2023-05-22T05:17:48.694Z,3129.00
2023-05-22T05:18:48.648Z,3092.00
2023-05-22T05:19:48.608Z,3119.00
2023-05-22T05:20:48.700Z,3159.00
2023-05-22T05:21:48.764Z,3202.00
2023-05-22T05:22:48.893Z,3271.00
2023-05-22T05:23:48.867Z,3307.00
2023-05-22T05:24:48.902Z,3321.00
2023-05-22T05:25:48.906Z,3350.00
2023-05-22T05:26:48.920Z,3318.00
2023-05-22T05:27:48.938Z,3319.00
2023-05-22T05:28:48.937Z,3359.00
2023-05-22T05:29:49.066Z,3428.00
2023-05-22T05:30:49.000Z,3449.00
2023-05-22T05:31:49.072Z,3490.00
2023-05-22T05:32:49.043Z,3588.00
2023-05-22T05:33:49.058Z,3586.00
2023-05-22T05:34:49.039Z,3593.00
2023-05-22T05:35:49.030Z,3603.00
2023-05-22T05:36:49.036Z,3605.00
2023-05-22T05:37:49.199Z,3625.00
2023-05-22T05:38:49.048Z,3707.00
2023-05-22T05:39:49.067Z,3774.00
2023-05-22T05:40:49.056Z,3812.00
2023-05-22T05:41:49.057Z,3821.00
2023-05-22T05:42:49.063Z,3818.00
2023-05-22T05:43:49.105Z,3821.00
2023-05-22T05:44:49.259Z,3807.00
2023-05-22T05:45:49.265Z,3824.00
2023-05-22T05:46:49.226Z,3842.00
2023-05-22T05:47:49.320Z,3901.00
2023-05-22T05:48:49.230Z,3953.00
2023-05-22T05:49:49.285Z,3927.00
2023-05-22T05:50:49.263Z,3951.00
2023-05-22T05:51:49.258Z,3944.00
2023-05-22T05:52:49.318Z,3929.00
2023-05-22T05:53:49.320Z,3919.00
2023-05-22T05:54:49.373Z,3869.00
2023-05-22T05:55:49.478Z,3887.00
2023-05-22T05:56:49.487Z,3899.00
2023-05-22T05:57:49.544Z,3870.00
2023-05-22T05:58:49.621Z,3860.00
2023-05-22T05:59:49.694Z,3864.00
2023-05-22T06:00:49.743Z,3906.00
2023-05-22T06:01:49.789Z,3883.00
2023-05-22T06:02:50.745Z,3886.00
2023-05-22T06:03:49.917Z,3905.00
2023-05-22T06:04:49.913Z,3923.00
2023-05-22T06:05:50.096Z,3945.00
2023-05-22T06:06:49.994Z,3940.00
2023-05-22T06:07:50.040Z,3919.00
2023-05-22T06:08:50.088Z,3914.00
2023-05-22T06:09:50.132Z,3937.00
2023-05-22T06:10:50.169Z,3888.00
2023-05-22T06:11:50.238Z,3838.00
2023-05-22T06:12:50.269Z,3852.00
2023-05-22T06:13:50.330Z,3891.00
2023-05-22T06:14:50.347Z,3860.00
2023-05-22T06:15:50.442Z,3889.00
2023-05-22T06:16:50.497Z,3885.00
2023-05-22T06:17:50.797Z,3863.00
2023-05-22T06:18:50.478Z,3832.00
2023-05-22T06:19:50.480Z,3863.00
2023-05-22T06:20:50.556Z,3840.00
2023-05-22T06:21:52.119Z,3755.00
2023-05-22T06:22:50.579Z,3761.00
2023-05-22T06:23:50.605Z,3821.00
2023-05-22T06:24:50.674Z,3776.00
2023-05-22T06:25:50.677Z,3758.00
2023-05-22T06:26:50.759Z,3723.00
2023-05-22T06:27:50.725Z,3663.00
2023-05-22T06:28:50.769Z,3621.00
2023-05-22T06:29:50.751Z,3675.00
2023-05-22T06:30:50.793Z,3657.00
2023-05-22T06:31:51.246Z,3577.00
2023-05-22T06:32:51.008Z,3528.00
2023-05-22T06:33:51.130Z,3521.00
2023-05-22T06:34:50.915Z,3567.00
2023-05-22T06:35:50.908Z,3582.00
2023-05-22T06:36:51.225Z,3587.00
2023-05-22T06:37:50.963Z,3609.00
2023-05-22T06:38:51.035Z,3659.00
2023-05-22T06:39:51.002Z,3688.00
2023-05-22T06:40:51.024Z,3742.00
2023-05-22T06:41:51.051Z,3776.00
2023-05-22T06:42:51.723Z,3793.00
2023-05-22T06:43:51.094Z,3809.00
2023-05-22T06:44:51.096Z,3802.00
2023-05-22T06:45:51.196Z,3802.00
2023-05-22T06:46:51.244Z,3802.00
2023-05-22T06:47:51.273Z,3814.00
2023-05-22T06:48:51.167Z,3819.00
2023-05-22T06:49:51.175Z,3797.00
2023-05-22T06:50:51.193Z,3819.00
2023-05-22T06:51:51.244Z,3838.00
2023-05-22T06:52:51.237Z,3856.00
2023-05-22T06:53:51.254Z,3832.00
2023-05-22T06:54:51.313Z,3839.00
2023-05-22T06:55:51.271Z,3801.00
2023-05-22T06:56:51.292Z,3818.00
2023-05-22T06:57:51.333Z,3791.00
2023-05-22T06:58:51.317Z,3756.00
2023-05-22T06:59:51.318Z,3728.00
2023-05-22T07:00:51.408Z,3686.00
2023-05-22T07:01:51.385Z,3636.00
2023-05-22T07:02:51.422Z,3607.00
2023-05-22T07:03:51.336Z,3593.00
2023-05-22T07:04:51.467Z,3539.00
2023-05-22T07:05:51.466Z,3561.00
2023-05-22T07:06:51.331Z,3552.00
2023-05-22T07:07:51.342Z,3574.00
2023-05-22T07:08:51.351Z,3589.00
2023-05-22T07:09:51.335Z,3587.00
2023-05-22T07:10:51.332Z,3585.00
2023-05-22T07:11:51.359Z,3608.00
2023-05-22T07:12:51.331Z,3586.00
2023-05-22T07:13:51.348Z,3572.00
2023-05-22T07:14:51.375Z,3576.00
2023-05-22T07:15:51.364Z,3607.00
2023-05-22T07:16:51.534Z,3627.00
2023-05-22T07:17:51.427Z,3641.00
2023-05-22T07:18:51.413Z,3624.00
2023-05-22T07:19:51.410Z,3622.00
2023-05-22T07:20:51.425Z,3665.00
2023-05-22T07:21:51.449Z,3655.00
2023-05-22T07:22:51.491Z,3685.00
2023-05-22T07:23:51.498Z,3698.00
2023-05-22T07:24:51.519Z,3719.00
2023-05-22T07:25:51.523Z,3734.00
2023-05-22T07:26:51.543Z,3624.00
2023-05-22T07:27:51.738Z,3511.00
2023-05-22T07:28:51.555Z,3610.00
2023-05-22T07:29:51.539Z,3733.00
2023-05-22T07:30:51.560Z,3670.00
2023-05-22T07:31:51.619Z,3646.00
2023-05-22T07:32:51.827Z,3636.00
2023-05-22T07:33:51.614Z,3614.00
2023-05-22T07:34:51.679Z,3604.00
2023-05-22T07:35:51.708Z,3596.00
2023-05-22T07:36:51.785Z,3590.00
2023-05-22T07:37:52.328Z,3607.00
2023-05-22T07:38:51.837Z,3632.00
2023-05-22T07:39:52.761Z,3637.00
2023-05-22T07:40:51.918Z,3673.00
2023-05-22T07:41:53.305Z,3686.00
2023-05-22T07:42:52.110Z,3667.00
2023-05-22T07:43:52.135Z,3648.00
2023-05-22T07:44:52.216Z,3671.00
2023-05-22T07:45:52.309Z,3654.00
2023-05-22T07:46:52.306Z,3654.00
2023-05-22T07:47:54.056Z,3657.00
2023-05-22T07:48:52.351Z,3632.00
2023-05-22T07:49:52.353Z,3606.00
2023-05-22T07:50:52.350Z,3636.00
2023-05-22T07:51:52.324Z,3614.00
2023-05-22T07:52:52.320Z,3615.00
2023-05-22T07:53:52.693Z,3587.00
2023-05-22T07:54:52.325Z,3588.00
2023-05-22T07:55:52.318Z,3597.00
2023-05-22T07:56:52.304Z,3586.00
2023-05-22T07:57:52.299Z,3585.00
2023-05-22T07:58:52.291Z,3599.00
2023-05-22T07:59:52.790Z,3648.00
2023-05-22T08:00:52.269Z,3602.00
2023-05-22T08:01:52.255Z,3614.00
2023-05-22T08:02:53.014Z,3613.00
2023-05-22T08:03:53.414Z,3600.00
2023-05-22T08:04:52.277Z,3637.00
2023-05-22T08:05:52.264Z,3621.00
2023-05-22T08:06:52.349Z,3631.00
2023-05-22T08:07:52.245Z,3643.00
2023-05-22T08:08:52.227Z,3639.00
2023-05-22T08:09:52.308Z,3653.00
2023-05-22T08:11:03.033Z,3632.00
2023-05-22T08:11:53.204Z,3632.00
2023-05-22T08:12:52.238Z,3633.00
2023-05-22T08:13:52.172Z,3633.00
2023-05-22T08:14:52.191Z,3633.00
2023-05-22T08:15:52.174Z,3617.00
2023-05-22T08:16:53.185Z,3632.00
2023-05-22T08:17:52.299Z,3614.00
2023-05-22T08:18:52.202Z,3618.00
2023-05-22T08:19:52.232Z,3613.00
2023-05-22T08:20:53.164Z,3601.00
2023-05-22T08:21:52.120Z,3524.00
2023-05-22T08:22:52.264Z,3382.00
2023-05-22T08:23:52.146Z,3340.00
2023-05-22T08:24:52.137Z,3354.00
2023-05-22T08:25:52.300Z,3316.00
2023-05-22T08:26:52.237Z,3321.00
2023-05-22T08:27:52.318Z,3325.00
2023-05-22T08:28:52.355Z,3328.00
2023-05-22T08:29:52.423Z,3332.00
2023-05-22T08:30:52.433Z,3352.00
2023-05-22T08:31:52.572Z,3376.00
2023-05-22T08:32:52.611Z,3348.00
2023-05-22T08:33:52.744Z,3376.00
2023-05-22T08:34:52.681Z,3387.00
2023-05-22T08:35:52.725Z,3369.00
2023-05-22T08:36:52.783Z,3275.00
2023-05-22T08:37:52.837Z,2966.00
2023-05-22T08:38:53.275Z,2983.00
2023-05-22T08:39:52.966Z,3003.00
2023-05-22T08:40:52.992Z,3006.00
2023-05-22T08:41:53.068Z,2985.00
2023-05-22T08:42:53.121Z,3067.00
2023-05-22T08:43:53.306Z,2981.00
2023-05-22T08:44:53.184Z,3013.00
2023-05-22T08:45:53.211Z,3010.00
2023-05-22T08:46:53.236Z,2940.00
2023-05-22T08:47:53.331Z,2718.00
2023-05-22T08:48:53.771Z,2394.00
2023-05-22T08:49:53.383Z,2175.00
2023-05-22T08:50:53.363Z,2052.00
2023-05-22T08:51:53.396Z,1999.00
2023-05-22T08:52:53.754Z,2033.00
2023-05-22T08:53:53.398Z,2065.00
2023-05-22T08:54:53.428Z,1907.00
2023-05-22T08:55:53.452Z,1882.00
2023-05-22T08:56:57.162Z,2077.00
2023-05-22T08:57:53.461Z,1875.00
2023-05-22T08:58:53.785Z,1672.00
2023-05-22T08:59:53.448Z,1540.00
2023-05-22T09:00:53.507Z,1580.00
2023-05-22T09:01:53.418Z,1643.00
2023-05-22T09:02:53.458Z,1742.00
2023-05-22T09:03:53.410Z,1794.00
2023-05-22T09:04:53.464Z,1546.00
2023-05-22T09:05:53.405Z,1517.00
2023-05-22T09:06:53.401Z,1553.00
2023-05-22T09:07:53.386Z,1616.00
2023-05-22T09:08:53.370Z,1514.00
2023-05-22T09:09:53.359Z,1477.00
2023-05-22T09:10:53.360Z,1375.00
2023-05-22T09:11:53.358Z,1471.00
2023-05-22T09:12:53.792Z,1401.00
2023-05-22T09:13:53.359Z,1319.00
2023-05-22T09:14:54.600Z,1291.00
2023-05-22T09:15:53.321Z,1272.00
2023-05-22T09:16:53.337Z,1426.00
2023-05-22T09:17:53.840Z,1473.00
2023-05-22T09:18:53.332Z,1480.00
2023-05-22T09:19:53.291Z,1443.00
2023-05-22T09:20:53.269Z,1657.00
2023-05-22T09:21:53.283Z,1812.00
2023-05-22T09:22:53.320Z,1858.00
2023-05-22T09:23:53.246Z,1851.00
2023-05-22T09:24:53.277Z,1843.00
2023-05-22T09:25:53.261Z,1857.00
2023-05-22T09:26:53.225Z,1851.00
2023-05-22T09:27:53.298Z,1565.00
2023-05-22T09:28:53.279Z,1331.00
2023-05-22T09:29:53.306Z,1308.00
2023-05-22T09:30:53.225Z,1193.00
2023-05-22T09:31:53.284Z,907.00
2023-05-22T09:32:53.336Z,1055.00
2023-05-22T09:33:53.305Z,1219.00
2023-05-22T09:34:53.188Z,1432.00
2023-05-22T09:35:53.173Z,1589.00
2023-05-22T09:36:53.160Z,1723.00
2023-05-22T09:37:53.213Z,1742.00
2023-05-22T09:38:53.285Z,1805.00
2023-05-22T09:39:53.278Z,1929.00
2023-05-22T09:40:53.328Z,2049.00
2023-05-22T09:41:53.407Z,2127.00
2023-05-22T09:42:53.396Z,2230.00
2023-05-22T09:43:53.425Z,2290.00
2023-05-22T09:44:53.486Z,2357.00
2023-05-22T09:45:53.578Z,2397.00
2023-05-22T09:46:53.631Z,2484.00
2023-05-22T09:47:53.656Z,2594.00
2023-05-22T09:48:53.814Z,2581.00
2023-05-22T09:49:53.699Z,2735.00
2023-05-22T09:50:53.744Z,2937.00
2023-05-22T09:51:53.774Z,3011.00
2023-05-22T09:52:53.845Z,2893.00
2023-05-22T09:53:53.869Z,2729.00
2023-05-22T09:54:53.914Z,2627.00
2023-05-22T09:55:53.965Z,2606.00
2023-05-22T09:56:54.001Z,2549.00
2023-05-22T09:57:54.020Z,2487.00
2023-05-22T09:58:54.072Z,2477.00
2023-05-22T09:59:54.130Z,2465.00
2023-05-22T10:00:54.138Z,2607.00
2023-05-22T10:01:54.359Z,2655.00
2023-05-22T10:02:54.306Z,2353.00
2023-05-22T10:03:54.387Z,2303.00
2023-05-22T10:04:54.344Z,2236.00
2023-05-22T10:05:54.379Z,2192.00
2023-05-22T10:06:54.389Z,2212.00
2023-05-22T10:07:54.411Z,2271.00
2023-05-22T10:08:54.435Z,2313.00
2023-05-22T10:09:54.464Z,2293.00
2023-05-22T10:10:54.504Z,2244.00
2023-05-22T10:11:54.529Z,2224.00
2023-05-22T10:12:54.554Z,2233.00
2023-05-22T10:13:54.641Z,2206.00
2023-05-22T10:14:54.610Z,2109.00
2023-05-22T10:15:54.654Z,2234.00
2023-05-22T10:16:54.676Z,2343.00
2023-05-22T10:17:54.779Z,2423.00
2023-05-22T10:18:54.777Z,2460.00
2023-05-22T10:19:54.819Z,2460.00
2023-05-22T10:20:54.759Z,2385.00
2023-05-22T10:21:54.808Z,2302.00
2023-05-22T10:22:55.849Z,2319.00
2023-05-22T10:23:54.846Z,2445.00
2023-05-22T10:24:54.882Z,2424.00
2023-05-22T10:25:54.896Z,2431.00
2023-05-22T10:26:54.943Z,2535.00
2023-05-22T10:27:54.954Z,2668.00
2023-05-22T10:28:55.712Z,2749.00
2023-05-22T10:29:55.309Z,2832.00
2023-05-22T10:30:54.987Z,2846.00
2023-05-22T10:31:55.098Z,2872.00
2023-05-22T10:32:55.404Z,2808.00
2023-05-22T10:33:55.225Z,2778.00
2023-05-22T10:34:55.055Z,2777.00
2023-05-22T10:35:55.056Z,2757.00
2023-05-22T10:36:58.176Z,2752.00
2023-05-22T10:37:56.086Z,2754.00
2023-05-22T10:38:55.056Z,2754.00
2023-05-22T10:39:55.054Z,2712.00
2023-05-22T10:40:55.028Z,2715.00
2023-05-22T10:41:55.063Z,2747.00
2023-05-22T10:42:55.040Z,2703.00
2023-05-22T10:43:55.028Z,2681.00
2023-05-22T10:44:55.037Z,2677.00
2023-05-22T10:45:55.042Z,2671.00
2023-05-22T10:46:55.007Z,2672.00
2023-05-22T10:47:55.044Z,2670.00
2023-05-22T10:48:55.002Z,2678.00
2023-05-22T10:49:55.089Z,2695.00
2023-05-22T10:50:55.010Z,2697.00
2023-05-22T10:51:54.972Z,2699.00
2023-05-22T10:52:54.983Z,2708.00
2023-05-22T10:53:55.035Z,2714.00
2023-05-22T10:54:54.973Z,2724.00
2023-05-22T10:55:54.931Z,2716.00
2023-05-22T10:56:54.927Z,2719.00
2023-05-22T10:57:54.909Z,2718.00
2023-05-22T10:58:54.902Z,2735.00
2023-05-22T10:59:54.940Z,2777.00
2023-05-22T11:00:54.888Z,2781.00
2023-05-22T11:01:54.930Z,2783.00
2023-05-22T11:02:56.714Z,2809.00
2023-05-22T11:03:55.871Z,2809.00
2023-05-22T11:04:54.926Z,2756.00
2023-05-22T11:05:54.943Z,2740.00
2023-05-22T11:06:54.897Z,2730.00
2023-05-22T11:07:54.903Z,2734.00
2023-05-22T11:08:54.838Z,2680.00
2023-05-22T11:09:54.874Z,2644.00
2023-05-22T11:10:54.845Z,2587.00
2023-05-22T11:11:54.826Z,2563.00
2023-05-22T11:12:54.862Z,2570.00
2023-05-22T11:13:54.855Z,2548.00
2023-05-22T11:14:54.825Z,2316.00
2023-05-22T11:15:54.821Z,2322.00
2023-05-22T11:16:54.898Z,2319.00
2023-05-22T11:17:54.901Z,2264.00
2023-05-22T11:18:55.423Z,2262.00
2023-05-22T11:19:54.802Z,2227.00
2023-05-22T11:20:54.787Z,2246.00
2023-05-22T11:21:54.838Z,2195.00
2023-05-22T11:22:54.749Z,2168.00
2023-05-22T11:23:54.738Z,2195.00
2023-05-22T11:24:54.800Z,2195.00
2023-05-22T11:25:54.733Z,2062.00
2023-05-22T11:26:54.757Z,2019.00
2023-05-22T11:27:54.810Z,2060.00
2023-05-22T11:28:54.750Z,1922.00
2023-05-22T11:29:54.754Z,1999.00
2023-05-22T11:30:54.771Z,1963.00
2023-05-22T11:31:54.698Z,1785.00
2023-05-22T11:32:54.926Z,1580.00
2023-05-22T11:33:54.881Z,1499.00
2023-05-22T11:34:54.660Z,1557.00
2023-05-22T11:35:54.670Z,1551.00
2023-05-22T11:36:54.689Z,1541.00
2023-05-22T11:37:54.762Z,1590.00
2023-05-22T11:38:54.667Z,1654.00
2023-05-22T11:39:54.741Z,1678.00
2023-05-22T11:40:54.791Z,1562.00
2023-05-22T11:41:54.868Z,1652.00
2023-05-22T11:42:54.862Z,1661.00
2023-05-22T11:43:54.916Z,1677.00
2023-05-22T11:44:54.947Z,1657.00
2023-05-22T11:45:55.102Z,1618.00
2023-05-22T11:46:55.078Z,1560.00
2023-05-22T11:47:55.112Z,1482.00
2023-05-22T11:48:55.118Z,1391.00
2023-05-22T11:49:55.164Z,1087.00
2023-05-22T11:50:55.220Z,1360.00
2023-05-22T11:51:55.250Z,1330.00
2023-05-22T11:52:55.304Z,918.00
2023-05-22T11:53:55.432Z,884.00
2023-05-22T11:54:55.373Z,1046.00
2023-05-22T11:55:55.420Z,954.00
2023-05-22T11:56:55.474Z,775.00
2023-05-22T11:57:55.530Z,820.00
2023-05-22T11:58:55.545Z,959.00
2023-05-22T11:59:55.663Z,1031.00
2023-05-22T12:00:55.694Z,1019.00
2023-05-22T12:01:55.709Z,992.00
2023-05-22T12:02:55.816Z,991.00
2023-05-22T12:03:56.059Z,912.00
2023-05-22T12:04:55.826Z,828.00
2023-05-22T12:05:55.876Z,764.00
2023-05-22T12:06:55.968Z,817.00